Time;durP1;ratioP1;P1;durP2;ratioP2;P2;SDS_P1;SDS_P2;PMS_P1;PMS_P2;Temp;Humidity;BMP_temperature;BMP_pressure;BME280_temperature;BME280_humidity;BME280_pressure;Samples;Min_cycle;Max_cycle;Signal;HPM_P1;HPM_P2
2020/12/14 00:02:29;;;;;;;16.20;10.55;;;;;;;1.39;100.00;100222.34;5061024;28;20067;-65
2020/12/14 00:05:14;;;;;;;;;;;;;;;1.30;100.00;100217.59;5076287;28;20051;-65
2020/12/14 00:07:58;;;;;;;14.75;9.60;;;;;;;1.26;100.00;100223.94;5076108;28;20288;-65
2020/12/14 00:10:42;;;;;;;15.23;9.13;;;;;;;1.20;100.00;100213.81;5075749;28;20048;-65
2020/12/14 00:13:26;;;;;;;14.65;9.80;;;;;;;1.18;100.00;100218.31;5060838;28;20606;-64
2020/12/14 00:16:10;;;;;;;14.85;9.73;;;;;;;1.18;100.00;100223.56;5075728;28;20123;-65
2020/12/14 00:18:55;;;;;;;17.23;10.27;;;;;;;1.20;100.00;100223.47;5075923;28;20128;-65
2020/12/14 00:21:39;;;;;;;16.50;9.93;;;;;;;1.25;100.00;100222.25;5060826;28;20102;-65
2020/12/14 00:24:23;;;;;;;17.85;11.68;;;;;;;1.24;100.00;100214.50;5060336;28;20114;-65
2020/12/14 00:27:07;;;;;;;21.98;12.80;;;;;;;1.30;100.00;100215.00;5046435;28;20055;-65
2020/12/14 00:29:51;;;;;;;19.15;11.68;;;;;;;1.32;100.00;100215.75;5060477;28;20182;-64
2020/12/14 00:32:35;;;;;;;17.98;10.93;;;;;;;1.35;100.00;100215.56;5060248;28;20138;-65
2020/12/14 00:35:19;;;;;;;;;;;;;;;1.36;100.00;100205.91;5046726;28;20052;-65
2020/12/14 00:38:03;;;;;;;16.35;9.90;;;;;;;1.36;100.00;100211.16;5059663;28;19963;-65
2020/12/14 00:40:47;;;;;;;14.20;9.35;;;;;;;1.34;100.00;100210.41;5075424;28;20051;-65
2020/12/14 00:43:31;;;;;;;;;;;;;;;1.31;100.00;100207.94;5060750;28;20059;-65
2020/12/14 00:46:18;;;;;;;16.83;9.87;;;;;;;1.29;100.00;100208.03;5075088;28;19998;-65
2020/12/14 00:49:02;;;;;;;19.05;10.38;;;;;;;1.30;100.00;100188.72;5060149;28;20047;-65
2020/12/14 00:51:46;;;;;;;19.30;10.88;;;;;;;1.31;100.00;100187.78;5059793;28;20519;-65
2020/12/14 00:54:33;;;;;;;18.33;9.85;;;;;;;1.29;100.00;100176.53;5059945;28;20057;-65
2020/12/14 00:57:17;;;;;;;17.33;9.80;;;;;;;1.25;100.00;100175.00;5074890;28;20090;-65
2020/12/14 01:00:01;;;;;;;17.02;10.57;;;;;;;1.22;100.00;100175.19;5074773;28;20051;-65
2020/12/14 01:02:45;;;;;;;13.82;8.95;;;;;;;1.20;100.00;100192.81;5059830;28;20056;-65
2020/12/14 01:05:29;;;;;;;11.65;8.52;;;;;;;1.16;100.00;100195.69;5074711;28;20094;-65
2020/12/14 01:08:13;;;;;;;15.68;8.48;;;;;;;1.09;100.00;100216.22;5074723;28;20094;-65
2020/12/14 01:10:57;;;;;;;15.15;9.52;;;;;;;1.08;100.00;100213.66;5045321;28;20055;-65
2020/12/14 01:13:45;;;;;;;14.95;9.20;;;;;;;1.10;100.00;100217.03;5074842;28;20069;-65
2020/12/14 01:16:29;;;;;;;12.82;8.95;;;;;;;1.11;100.00;100219.59;5059883;28;20067;-65
2020/12/14 01:19:13;;;;;;;15.95;8.65;;;;;;;1.12;100.00;100217.78;5074698;28;20463;-65
2020/12/14 01:21:57;;;;;;;14.75;9.18;;;;;;;1.17;100.00;100219.22;5059231;28;20043;-64
2020/12/14 01:24:41;;;;;;;14.23;9.20;;;;;;;1.23;100.00;100218.06;5045071;28;20079;-64
2020/12/14 01:27:25;;;;;;;13.50;8.73;;;;;;;1.27;100.00;100209.88;5074498;28;20137;-64
2020/12/14 01:30:09;;;;;;;15.15;9.50;;;;;;;1.30;100.00;100209.72;5060400;28;20527;-65
2020/12/14 01:32:54;;;;;;;15.13;8.95;;;;;;;1.33;100.00;100208.69;5074063;28;20047;-66
2020/12/14 01:35:38;;;;;;;12.63;8.27;;;;;;;1.34;100.00;100211.25;5074365;28;20124;-66
2020/12/14 01:38:22;;;;;;;12.98;8.43;;;;;;;1.35;100.00;100212.94;5074032;28;20070;-66
2020/12/14 01:41:06;;;;;;;12.13;8.32;;;;;;;1.36;100.00;100219.88;5058958;28;20054;-67
2020/12/14 01:43:50;;;;;;;15.73;9.75;;;;;;;1.35;100.00;100218.19;5074356;28;20051;-66
2020/12/14 01:46:34;;;;;;;17.45;9.65;;;;;;;1.35;100.00;100226.06;5058936;28;20075;-65
2020/12/14 01:49:19;;;;;;;14.57;9.73;;;;;;;1.32;100.00;100213.13;5058494;28;20562;-66
2020/12/14 01:52:03;;;;;;;13.95;9.20;;;;;;;1.31;100.00;100226.31;5073706;28;20051;-66
2020/12/14 01:54:48;;;;;;;12.18;8.30;;;;;;;1.26;100.00;100223.94;5073797;28;20051;-66
2020/12/14 01:57:33;;;;;;;12.68;8.95;;;;;;;1.21;100.00;100226.00;5074013;28;20403;-66
2020/12/14 02:00:17;;;;;;;13.27;8.95;;;;;;;1.18;100.00;100227.97;5058717;28;20097;-66
2020/12/14 02:03:01;;;;;;;12.25;8.15;;;;;;;1.16;100.00;100227.22;5058771;28;20052;-66
2020/12/14 02:05:46;;;;;;;11.32;7.93;;;;;;;1.11;100.00;100237.09;5058800;28;20412;-66
2020/12/14 02:08:30;;;;;;;14.35;8.65;;;;;;;1.11;100.00;100235.34;5073824;28;20102;-66
2020/12/14 02:11:15;;;;;;;13.60;8.07;;;;;;;1.06;100.00;100224.22;5058431;28;20051;-66
2020/12/14 02:13:58;;;;;;;14.75;9.15;;;;;;;1.05;100.00;100214.66;5073561;28;20063;-66
2020/12/14 02:16:42;;;;;;;12.88;8.60;;;;;;;1.07;100.00;100207.53;5044527;28;20063;-66
2020/12/14 02:19:26;;;;;;;14.40;9.25;;;;;;;1.03;100.00;100203.41;5073732;28;20109;-66
2020/12/14 02:22:11;;;;;;;13.63;8.48;;;;;;;1.02;100.00;100199.09;5058566;28;20606;-66
2020/12/14 02:24:57;;;;;;;15.32;8.95;;;;;;;1.01;100.00;100186.91;5073418;28;20094;-65
2020/12/14 02:27:43;;;;;;;12.85;8.57;;;;;;;1.00;100.00;100184.38;5073454;28;20051;-66
2020/12/14 02:30:27;;;;;;;16.73;8.10;;;;;;;0.96;100.00;100175.81;5073648;28;20055;-66
2020/12/14 02:33:12;;;;;;;11.50;7.78;;;;;;;0.90;100.00;100177.94;5073430;28;20051;-66
2020/12/14 02:35:56;;;;;;;14.23;8.57;;;;;;;0.84;100.00;100184.38;5073495;28;20151;-66
2020/12/14 02:38:39;;;;;;;13.50;8.68;;;;;;;0.78;100.00;100178.63;5073463;28;20044;-67
2020/12/14 02:41:23;;;;;;;19.65;8.73;;;;;;;0.76;100.00;100176.09;5043923;28;20097;-66
2020/12/14 02:44:07;;;;;;;14.55;7.97;;;;;;;0.76;100.00;100180.50;5058397;28;20417;-66
2020/12/14 02:46:51;;;;;;;16.75;9.98;;;;;;;0.74;100.00;100167.47;5073189;28;20046;-66
2020/12/14 02:49:36;;;;;;;14.07;8.52;;;;;;;0.77;100.00;100169.94;5073360;28;20079;-66
2020/12/14 02:52:20;;;;;;;12.20;8.57;;;;;;;0.76;100.00;100165.59;5073353;28;20409;-66
2020/12/14 02:55:04;;;;;;;17.60;9.40;;;;;;;0.77;100.00;100159.44;5073178;28;20083;-66
2020/12/14 02:57:48;;;;;;;12.23;7.80;;;;;;;0.77;100.00;100156.81;5073019;28;20570;-66
2020/12/14 03:00:33;;;;;;;14.32;7.75;;;;;;;0.72;100.00;100164.06;5073019;28;20561;-66
2020/12/14 03:03:17;;;;;;;13.32;7.32;;;;;;;0.68;100.00;100162.56;5061727;28;20055;-66
2020/12/14 03:06:00;;;;;;;12.70;7.30;;;;;;;0.63;100.00;100163.75;5062025;28;20055;-66
2020/12/14 03:08:45;;;;;;;10.25;7.15;;;;;;;0.55;100.00;100156.28;5077002;28;20047;-66
2020/12/14 03:11:29;;;;;;;12.90;7.85;;;;;;;0.54;100.00;100159.03;5076948;28;20051;-66
2020/12/14 03:14:13;;;;;;;12.73;7.10;;;;;;;0.53;100.00;100160.78;5077080;28;20101;-66
2020/12/14 03:16:57;;;;;;;13.27;7.50;;;;;;;0.51;100.00;100157.41;5061638;28;20496;-66
2020/12/14 03:19:41;;;;;;;;;;;;;;;0.51;100.00;100157.41;5048202;28;20074;-66
2020/12/14 03:22:25;;;;;;;10.63;7.10;;;;;;;0.42;100.00;100150.03;5076718;28;20431;-66
2020/12/14 03:25:09;;;;;;;13.73;7.63;;;;;;;0.43;100.00;100151.72;5061800;28;20265;-66
2020/12/14 03:27:53;;;;;;;12.02;7.35;;;;;;;0.46;100.00;100159.44;5061640;28;20488;-66
2020/12/14 03:30:37;;;;;;;13.25;7.90;;;;;;;0.50;100.00;100147.84;5061338;28;20572;-67
2020/12/14 03:33:21;;;;;;;9.45;6.93;;;;;;;0.55;100.00;100156.28;5076470;28;20047;-66
2020/12/14 03:36:05;;;;;;;9.00;6.50;;;;;;;0.60;100.00;100153.41;5061370;28;20048;-66
2020/12/14 03:38:50;;;;;;;10.27;7.10;;;;;;;0.65;100.00;100157.47;5076617;28;20121;-66
2020/12/14 03:41:35;;;;;;;14.07;8.15;;;;;;;0.73;100.00;100157.06;5061552;28;20042;-66
2020/12/14 03:44:19;;;;;;;11.80;7.70;;;;;;;0.82;100.00;100160.00;5061358;28;20048;-66
2020/12/14 03:47:03;;;;;;;14.07;8.48;;;;;;;0.92;100.00;100158.56;5076166;28;20048;-66
2020/12/14 03:49:47;;;;;;;14.35;9.38;;;;;;;0.86;100.00;100156.28;5061264;28;20526;-66
2020/12/14 03:52:31;;;;;;;13.10;7.70;;;;;;;0.96;100.00;100161.84;5076190;28;20055;-66
2020/12/14 03:55:15;;;;;;;13.18;7.35;;;;;;;1.02;100.00;100177.25;5076207;28;20102;-66
2020/12/14 03:57:59;;;;;;;10.23;6.75;;;;;;;1.08;100.00;100167.25;5061188;28;20093;-66
2020/12/14 04:00:45;;;;;;;10.38;6.53;;;;;;;1.12;100.00;100157.41;5075915;28;20446;-67
2020/12/14 04:03:30;;;;;;;11.18;6.90;;;;;;;1.13;100.00;100162.59;5060841;28;20051;-66
2020/12/14 04:06:21;;;;;;;10.85;6.93;;;;;;;1.14;100.00;100163.44;5060964;28;20052;-66
2020/12/14 04:09:06;;;;;;;7.38;5.80;;;;;;;1.13;100.00;100173.09;5076290;28;20051;-66
2020/12/14 04:11:50;;;;;;;9.35;6.60;;;;;;;1.12;100.00;100179.28;5075784;28;20127;-65
2020/12/14 04:14:34;;;;;;;13.27;6.95;;;;;;;1.11;100.00;100177.59;5075722;28;20163;-66
2020/12/14 04:17:18;;;;;;;12.38;6.80;;;;;;;1.15;100.00;100171.22;5032719;28;20132;-67
2020/12/14 04:20:02;;;;;;;10.05;6.93;;;;;;;1.20;100.00;100166.56;5075896;28;20139;-66
2020/12/14 04:22:49;;;;;;;;;;;;;;;1.25;100.00;100169.75;5046732;28;20428;-66
2020/12/14 04:25:33;;;;;;;8.38;6.00;;;;;;;1.29;100.00;100173.03;5075531;28;19961;-66
2020/12/14 04:28:17;;;;;;;;;;;;;;;1.28;100.00;100169.59;5061018;28;20055;-66
2020/12/14 04:31:01;;;;;;;9.40;6.33;;;;;;;1.31;100.00;100161.53;5075559;28;19923;-66
2020/12/14 04:33:45;;;;;;;7.63;5.63;;;;;;;1.33;100.00;100151.78;5060248;28;20047;-65
2020/12/14 04:36:29;;;;;;;10.48;7.07;;;;;;;1.37;100.00;100153.28;5075631;28;20106;-67
2020/12/14 04:39:13;;;;;;;10.07;6.20;;;;;;;1.41;100.00;100154.81;5075766;28;20122;-66
2020/12/14 04:41:58;;;;;;;7.72;5.90;;;;;;;1.41;100.00;100160.06;5060242;28;20050;-66
2020/12/14 04:44:43;;;;;;;9.38;6.80;;;;;;;1.40;100.00;100166.25;5031880;28;20051;-66
2020/12/14 04:47:28;;;;;;;9.15;5.60;;;;;;;1.36;100.00;100172.59;5060047;28;20513;-66
2020/12/14 04:50:14;;;;;;;9.10;6.00;;;;;;;1.34;100.00;100165.75;5060210;28;20097;-66
2020/12/14 04:53:03;;;;;;;12.13;6.95;;;;;;;1.32;100.00;100165.84;5075083;28;20523;-66
2020/12/14 04:55:47;;;;;;;10.07;6.28;;;;;;;1.40;100.00;100168.00;5074900;28;20050;-66
2020/12/14 04:58:31;;;;;;;9.15;6.57;;;;;;;1.44;100.00;100162.50;5059997;28;20102;-66
2020/12/14 05:01:15;;;;;;;12.32;7.72;;;;;;;1.52;100.00;100149.75;5059653;28;20098;-65
2020/12/14 05:03:59;;;;;;;13.80;7.60;;;;;;;1.58;100.00;100156.44;5074962;28;20046;-65
2020/12/14 05:06:49;;;;;;;8.50;6.50;;;;;;;1.67;100.00;100151.47;5059793;28;20048;-66
2020/12/14 05:09:33;;;;;;;10.50;6.72;;;;;;;1.71;100.00;100153.00;5059833;28;20098;-64
2020/12/14 05:12:18;;;;;;;10.27;6.65;;;;;;;1.74;100.00;100151.94;5059496;28;20083;-65
2020/12/14 05:15:03;;;;;;;12.15;7.20;;;;;;;1.77;100.00;100144.72;5074537;28;20118;-65
2020/12/14 05:18:09;;;;;;;10.45;7.53;;;;;;;1.80;100.00;100147.19;5059347;28;20047;-63
2020/12/14 05:20:57;;;;;;;9.43;6.95;;;;;;;1.82;100.00;100145.31;5074558;28;20539;-64
2020/12/14 05:23:41;;;;;;;11.00;6.22;;;;;;;1.80;100.00;100144.56;5059649;28;20512;-65
2020/12/14 05:26:29;;;;;;;10.52;6.45;;;;;;;1.78;100.00;100135.91;5074370;28;20074;-65
2020/12/14 05:29:18;;;;;;;8.98;5.88;;;;;;;1.79;100.00;100144.63;5059079;28;20136;-65
2020/12/14 05:32:02;;;;;;;13.30;6.75;;;;;;;1.81;100.00;100138.34;5074074;28;20047;-64
2020/12/14 05:34:47;;;;;;;9.88;7.05;;;;;;;1.84;100.00;100143.41;5059046;28;20047;-64
2020/12/14 05:37:31;;;;;;;13.45;7.43;;;;;;;1.89;100.00;100151.88;5074339;28;20051;-64
2020/12/14 05:40:16;;;;;;;11.27;5.78;;;;;;;1.88;100.00;100155.44;5074265;28;20055;-63
2020/12/14 05:43:10;;;;;;;7.90;5.35;;;;;;;1.86;100.00;100157.31;5059159;28;20094;-64
2020/12/14 05:45:54;;;;;;;10.80;6.00;;;;;;;1.89;100.00;100156.28;5074462;28;20503;-65
2020/12/14 05:48:38;;;;;;;9.35;6.63;;;;;;;1.93;100.00;100163.91;5058778;28;20055;-65
2020/12/14 05:51:24;;;;;;;8.77;5.88;;;;;;;1.96;100.00;100168.13;5058697;28;20067;-65
2020/12/14 05:54:12;;;;;;;12.15;5.90;;;;;;;2.03;100.00;100165.03;5074110;28;20112;-65
2020/12/14 05:56:57;;;;;;;8.77;6.10;;;;;;;2.04;100.00;100166.72;5058937;28;20400;-64
2020/12/14 05:59:46;;;;;;;10.68;6.43;;;;;;;2.04;100.00;100166.72;5073834;28;20090;-64
2020/12/14 06:02:30;;;;;;;10.23;5.65;;;;;;;2.06;100.00;100164.84;5073606;28;20089;-64
2020/12/14 06:05:14;;;;;;;11.57;6.30;;;;;;;2.08;100.00;100168.22;5058739;28;20074;-64
2020/12/14 06:08:00;;;;;;;8.93;5.97;;;;;;;2.11;100.00;100156.66;5073505;28;20102;-65
2020/12/14 06:10:48;;;;;;;8.98;6.10;;;;;;;2.19;100.00;100165.75;5058599;28;20079;-65
2020/12/14 06:13:32;;;;;;;9.43;6.55;;;;;;;2.22;100.00;100160.34;5073766;28;20047;-65
2020/12/14 06:16:39;;;;;;;;;;;;;;;2.27;100.00;100155.63;5058669;28;20133;-65
2020/12/14 06:19:23;;;;;;;9.13;6.57;;;;;;;2.35;100.00;100161.25;5073760;28;19958;-64
2020/12/14 06:22:09;;;;;;;9.02;7.13;;;;;;;2.41;100.00;100163.50;5058052;28;20488;-64
2020/12/14 06:25:01;;;;;;;13.88;7.80;;;;;;;2.47;100.00;100162.28;5044746;28;20531;-64
2020/12/14 06:27:45;;;;;;;12.10;6.72;;;;;;;2.53;100.00;100176.72;5058389;28;20523;-65
2020/12/14 06:30:32;;;;;;;10.20;6.78;;;;;;;2.56;100.00;100170.44;5073209;28;20520;-65
2020/12/14 06:33:37;;;;;;;10.68;6.40;;;;;;;2.59;100.00;100171.09;5073558;28;20067;-65
2020/12/14 06:36:23;;;;;;;11.15;6.18;;;;;;;2.65;100.00;100169.84;5057402;28;20044;-64
2020/12/14 06:39:31;;;;;;;9.48;6.43;;;;;;;2.72;100.00;100171.16;5058001;28;20046;-64
2020/12/14 06:42:14;;;;;;;11.32;6.63;;;;;;;2.74;100.00;100178.00;5073426;28;20097;-64
2020/12/14 06:45:08;;;;;;;7.78;6.07;;;;;;;2.81;100.00;100176.69;5073112;28;20131;-65
2020/12/14 06:47:53;;;;;;;10.52;7.35;;;;;;;2.85;100.00;100172.06;5073156;28;20051;-64
2020/12/14 06:50:40;;;;;;;11.35;6.75;;;;;;;2.90;100.00;100176.09;5057908;28;20421;-63
2020/12/14 06:53:37;;;;;;;13.02;7.38;;;;;;;2.94;100.00;100171.47;5073044;28;20505;-64
2020/12/14 06:56:27;;;;;;;11.82;7.55;;;;;;;3.00;100.00;100177.19;5072954;28;20043;-64
2020/12/14 06:59:28;;;;;;;8.45;5.38;;;;;;;3.04;100.00;100183.94;5072961;28;20055;-64
2020/12/14 07:02:14;;;;;;;8.00;6.47;;;;;;;3.07;100.00;100182.91;5073248;28;20047;-64
2020/12/14 07:04:58;;;;;;;13.43;6.97;;;;;;;3.06;100.00;100182.03;5073260;28;20133;-64
2020/12/14 07:07:51;;;;;;;12.48;7.97;;;;;;;3.04;100.00;100185.75;5057634;28;20429;-64
2020/12/14 07:10:35;;;;;;;10.70;6.93;;;;;;;3.06;100.00;100189.94;5057640;28;20075;-65
2020/12/14 07:13:30;;;;;;;9.55;6.80;;;;;;;3.11;100.00;100195.78;5058102;28;20051;-64
2020/12/14 07:16:16;;;;;;;9.02;5.47;;;;;;;3.15;100.00;100206.97;5072941;28;20105;-65
2020/12/14 07:19:04;;;;;;;9.73;5.70;;;;;;;3.15;100.00;100199.06;5058027;28;20063;-65
2020/12/14 07:21:52;;;;;;;11.32;6.63;;;;;;;3.17;100.00;100202.44;5073176;28;20055;-65
2020/12/14 07:24:37;;;;;;;7.75;5.93;;;;;;;3.19;100.00;100198.75;5057697;28;20040;-65
2020/12/14 07:27:22;;;;;;;10.50;7.00;;;;;;;3.22;100.00;100202.97;5073026;28;20115;-65
2020/12/14 07:30:19;;;;;;;11.52;6.50;;;;;;;3.25;100.00;100200.16;5058308;28;20102;-64
2020/12/14 07:33:04;;;;;;;8.20;6.55;;;;;;;3.31;100.00;100197.09;5072993;28;20055;-66
2020/12/14 07:35:47;;;;;;;9.60;6.13;;;;;;;3.35;100.00;100209.13;5072655;28;20408;-66
2020/12/14 07:38:31;;;;;;;9.50;7.13;;;;;;;3.39;100.00;100205.34;5057416;28;20070;-66
2020/12/14 07:41:16;;;;;;;10.15;6.68;;;;;;;3.47;100.00;100203.06;5043612;28;20472;-66
2020/12/14 07:44:00;;;;;;;12.20;7.93;;;;;;;3.50;100.00;100208.97;5072958;28;20131;-66
2020/12/14 07:46:44;;;;;;;10.38;7.78;;;;;;;3.58;100.00;100216.38;5072783;28;20124;-67
2020/12/14 07:49:28;;;;;;;10.70;7.97;;;;;;;3.66;100.00;100214.06;5076378;28;20639;-66
2020/12/14 07:52:25;;;;;;;9.65;7.28;;;;;;;3.74;100.00;100219.69;5061057;28;20043;-67
2020/12/14 07:55:11;;;;;;;13.52;7.97;;;;;;;3.81;100.00;100219.16;5076356;28;20169;-66
2020/12/14 07:57:55;;;;;;;11.18;7.68;;;;;;;3.88;100.00;100224.84;5061037;28;20114;-66
2020/12/14 08:00:39;;;;;;;12.32;8.40;;;;;;;3.96;100.00;100217.28;5061131;28;20055;-66
2020/12/14 08:03:23;;;;;;;12.55;8.57;;;;;;;4.02;100.00;100206.28;5076039;28;20075;-66
2020/12/14 08:06:14;;;;;;;18.70;11.40;;;;;;;4.10;100.00;100214.53;5061076;28;20478;-66
2020/12/14 08:09:00;;;;;;;15.52;10.70;;;;;;;4.18;100.00;100212.22;5061044;28;20047;-66
2020/12/14 08:11:46;;;;;;;23.38;14.77;;;;;;;4.26;100.00;100216.00;5075873;28;20052;-67
2020/12/14 08:14:30;;;;;;;24.13;13.40;;;;;;;4.33;100.00;100216.44;5060565;28;20097;-66
2020/12/14 08:17:14;;;;;;;24.33;14.20;;;;;;;4.46;100.00;100219.94;5075707;28;20105;-66
2020/12/14 08:19:58;;;;;;;19.42;12.23;;;;;;;4.58;100.00;100221.69;5075583;28;20121;-66
2020/12/14 08:22:42;;;;;;;21.08;12.13;;;;;;;4.68;100.00;100222.75;5060815;28;20043;-66
2020/12/14 08:25:29;;;;;;;17.38;10.45;;;;;;;4.79;100.00;100222.81;5075556;28;20515;-67
2020/12/14 08:28:13;;;;;;;16.88;9.18;;;;;;;4.85;100.00;100220.59;5075353;28;20066;-66
2020/12/14 08:30:57;;;;;;;12.65;8.75;;;;;;;4.91;100.00;100225.44;5060237;28;20074;-66
2020/12/14 08:33:52;;;;;;;10.75;8.13;;;;;;;5.04;100.00;100221.78;5075371;28;20063;-66
2020/12/14 08:36:39;;;;;;;10.32;6.57;;;;;;;5.14;100.00;100222.81;5046300;28;20067;-67
2020/12/14 08:39:23;;;;;;;10.85;7.30;;;;;;;5.29;100.00;100224.34;5075588;28;20098;-67
2020/12/14 08:42:12;;;;;;;10.00;7.25;;;;;;;5.43;100.00;100226.81;5060101;28;20082;-66
2020/12/14 08:45:09;;;;;;;12.43;6.75;;;;;;;5.62;100.00;100228.91;5060560;28;20071;-66
2020/12/14 08:47:59;;;;;;;10.38;6.53;;;;;;;5.78;100.00;100225.03;5059964;28;20101;-66
2020/12/14 08:50:43;;;;;;;11.15;6.55;;;;;;;5.96;100.00;100223.66;5074905;28;20043;-67
2020/12/14 08:53:27;;;;;;;10.88;6.88;;;;;;;6.13;100.00;100220.59;5060181;28;20083;-67
2020/12/14 08:56:14;;;;;;;11.20;5.90;;;;;;;6.32;100.00;100225.31;5060089;28;20051;-67
2020/12/14 08:58:59;;;;;;;7.97;5.35;;;;;;;6.44;100.00;100230.50;5059340;28;20149;-66
2020/12/14 09:02:00;;;;;;;6.80;4.60;;;;;;;6.57;97.62;100225.91;5059812;28;20124;-66
2020/12/14 09:04:44;;;;;;;9.85;4.10;;;;;;;6.57;87.53;100235.69;5059737;28;20079;-67
2020/12/14 09:07:29;;;;;;;4.57;3.55;;;;;;;6.59;85.70;100233.75;5074949;28;20106;-66
2020/12/14 09:10:19;;;;;;;7.95;3.85;;;;;;;6.67;85.90;100237.47;5074846;28;20087;-66
2020/12/14 09:13:04;;;;;;;7.28;3.33;;;;;;;6.77;86.31;100243.75;5059719;28;20522;-67
2020/12/14 09:15:53;;;;;;;5.82;3.63;;;;;;;6.96;85.53;100245.81;5059442;28;20090;-67
2020/12/14 09:18:44;;;;;;;5.60;4.15;;;;;;;7.03;85.80;100247.84;5059477;28;20105;-67
2020/12/14 09:21:31;;;;;;;6.30;4.03;;;;;;;7.14;86.19;100247.81;5059450;28;20055;-66
2020/12/14 09:24:18;;;;;;;6.18;4.68;;;;;;;7.25;85.58;100247.78;5059480;28;20146;-67
2020/12/14 09:27:05;;;;;;;9.80;5.60;;;;;;;7.41;85.09;100250.03;5059449;28;20051;-66
2020/12/14 09:29:50;;;;;;;7.10;5.13;;;;;;;7.56;84.83;100252.28;5074208;28;20129;-67
2020/12/14 09:32:35;;;;;;;8.85;5.70;;;;;;;7.78;80.86;100249.53;5074069;28;20051;-67
2020/12/14 09:35:19;;;;;;;10.63;6.05;;;;;;;7.79;80.88;100251.22;5058902;28;20055;-66
2020/12/14 09:38:03;;;;;;;9.38;6.25;;;;;;;7.65;82.37;100254.19;5059279;28;20069;-67
2020/12/14 09:40:52;;;;;;;10.10;6.38;;;;;;;7.62;84.24;100254.44;5074024;28;20046;-67
2020/12/14 09:43:36;;;;;;;15.00;6.25;;;;;;;7.59;83.67;100252.88;5074099;28;20123;-65
2020/12/14 09:46:20;;;;;;;13.10;7.15;;;;;;;7.68;84.54;100253.94;5074071;28;20086;-65
2020/12/14 09:49:04;;;;;;;12.88;6.53;;;;;;;7.78;84.38;100254.84;5058738;28;20050;-65
2020/12/14 09:51:49;;;;;;;10.20;6.20;;;;;;;7.86;81.77;100258.53;5073696;28;20055;-67
2020/12/14 09:54:33;;;;;;;10.85;6.00;;;;;;;7.99;81.97;100258.38;5073911;28;20059;-67
2020/12/14 09:57:17;;;;;;;9.02;5.20;;;;;;;7.91;83.72;100247.53;5058662;28;20119;-66
2020/12/14 10:00:01;;;;;;;10.20;4.63;;;;;;;7.95;82.86;100246.34;5058634;28;20048;-65
2020/12/14 10:02:45;;;;;;;7.40;5.18;;;;;;;8.05;83.41;100247.25;5058449;28;20063;-66
2020/12/14 10:05:29;;;;;;;8.45;5.20;;;;;;;8.18;80.78;100234.63;5073851;28;20523;-66
2020/12/14 10:08:16;;;;;;;9.60;5.28;;;;;;;8.15;81.43;100233.06;5073460;28;20098;-66
2020/12/14 10:11:00;;;;;;;7.70;4.90;;;;;;;8.05;81.00;100239.28;5058115;28;20117;-66
2020/12/14 10:13:44;;;;;;;6.78;4.47;;;;;;;8.00;78.30;100234.38;5058481;28;20047;-66
2020/12/14 10:16:29;;;;;;;8.30;5.22;;;;;;;8.03;79.90;100233.28;5073468;28;20098;-66
2020/12/14 10:19:13;;;;;;;9.80;4.53;;;;;;;8.16;78.88;100236.56;5073492;28;20047;-66
2020/12/14 10:21:57;;;;;;;10.15;5.00;;;;;;;9.73;74.63;100222.44;5058431;28;20119;-67
2020/12/14 10:24:41;;;;;;;5.47;4.00;;;;;;;10.46;71.00;100212.81;5073350;28;20052;-67
2020/12/14 10:27:25;;;;;;;7.88;4.68;;;;;;;10.59;69.89;100213.38;5073333;28;20131;-67
2020/12/14 10:30:09;;;;;;;7.93;4.65;;;;;;;10.70;67.43;100226.50;5058225;28;20052;-66
2020/12/14 10:32:52;;;;;;;5.75;4.13;;;;;;;10.66;68.71;100233.09;5073186;28;20120;-66
2020/12/14 10:35:36;;;;;;;6.85;4.45;;;;;;;10.64;67.81;100237.75;5058374;28;20106;-67
2020/12/14 10:38:20;;;;;;;7.90;5.30;;;;;;;11.12;65.83;100227.72;5073413;28;20051;-66
2020/12/14 10:41:05;;;;;;;10.50;5.40;;;;;;;12.30;61.09;100214.88;5073119;28;20082;-66
2020/12/14 10:43:49;;;;;;;8.25;4.72;;;;;;;15.29;53.86;100209.59;5058569;28;20052;-67
2020/12/14 10:46:34;;;;;;;5.65;4.32;;;;;;;17.86;46.45;100188.81;5044337;28;20516;-67
2020/12/14 10:49:19;;;;;;;7.47;4.72;;;;;;;19.91;38.58;100180.47;5044154;28;20459;-67
2020/12/14 10:52:03;;;;;;;6.88;5.10;;;;;;;20.67;37.01;100177.19;5072868;28;20464;-67
2020/12/14 10:54:50;;;;;;;7.43;5.88;;;;;;;21.36;36.27;100168.22;5073090;28;20420;-67
2020/12/14 10:57:34;;;;;;;8.25;5.55;;;;;;;21.61;35.72;100171.84;5058109;28;20059;-67
2020/12/14 11:00:21;;;;;;;6.40;5.18;;;;;;;22.49;32.54;100174.41;5057474;28;20050;-66
2020/12/14 11:03:05;;;;;;;7.70;5.07;;;;;;;21.41;34.63;100181.16;5073129;28;20155;-68
2020/12/14 11:05:52;;;;;;;6.93;5.57;;;;;;;22.32;33.55;100170.53;5072936;28;20091;-67
2020/12/14 11:08:36;;;;;;;4.45;4.00;;;;;;;23.90;30.04;100165.84;5073116;28;20041;-67
2020/12/14 11:11:20;;;;;;;;;;;;;;;25.26;29.31;100177.06;5058102;28;20051;-66
2020/12/14 11:14:04;;;;;;;7.13;4.00;;;;;;;25.95;26.79;100174.13;5072871;28;19920;-68
2020/12/14 11:16:48;;;;;;;4.35;3.50;;;;;;;26.74;25.17;100169.19;5073095;28;20090;-68
2020/12/14 11:19:31;;;;;;;;;;;;;;;24.39;28.48;100179.94;5058086;28;20055;-68
2020/12/14 11:22:16;;;;;;;3.67;3.38;;;;;;;24.66;27.71;100178.41;5057916;28;19969;-67
2020/12/14 11:25:00;;;;;;;4.15;3.45;;;;;;;22.76;30.13;100181.25;5061778;28;20051;-67
2020/12/14 11:27:45;;;;;;;4.78;3.35;;;;;;;21.65;32.99;100166.84;5076938;28;20043;-67
2020/12/14 11:30:29;;;;;;;5.88;3.35;;;;;;;20.53;34.35;100169.28;5076732;28;20470;-67
2020/12/14 11:33:13;;;;;;;4.45;3.00;;;;;;;19.25;36.85;100177.78;5061330;28;20194;-67
2020/12/14 11:35:57;;;;;;;20.27;14.77;;;;;;;18.33;39.18;100164.75;5061625;28;20488;-67
2020/12/14 11:38:41;;;;;;;7.90;3.90;;;;;;;17.91;39.61;100170.16;5061417;28;20043;-67
2020/12/14 11:41:25;;;;;;;;;;;;;;;17.24;40.41;100160.72;5076804;28;20105;-67
2020/12/14 11:44:09;;;;;;;5.22;3.67;;;;;;;16.90;41.43;100168.53;5061777;28;19966;-65
2020/12/14 11:46:53;;;;;;;5.75;3.60;;;;;;;16.50;42.88;100170.88;5076330;28;20047;-66
2020/12/14 11:49:37;;;;;;;5.30;3.50;;;;;;;15.89;44.67;100161.19;5076207;28;20071;-66
2020/12/14 11:52:21;;;;;;;5.32;3.65;;;;;;;15.72;44.98;100158.78;5061044;28;20136;-66
2020/12/14 11:55:06;;;;;;;4.95;4.03;;;;;;;15.57;45.89;100159.72;5076056;28;20567;-66
2020/12/14 11:57:50;;;;;;;6.22;4.53;;;;;;;15.27;46.40;100165.94;5061033;28;20507;-66
2020/12/14 12:00:34;;;;;;;4.53;3.92;;;;;;;14.96;47.60;100171.28;5060732;28;20101;-66
2020/12/14 12:03:17;;;;;;;5.65;4.32;;;;;;;14.73;48.62;100174.91;5061189;28;20500;-66
2020/12/14 12:06:01;;;;;;;6.68;4.40;;;;;;;14.37;49.36;100168.31;5061051;28;20097;-66
2020/12/14 12:08:45;;;;;;;6.50;4.40;;;;;;;13.84;50.18;100176.00;5075912;28;20044;-66
2020/12/14 12:11:29;;;;;;;5.95;4.55;;;;;;;13.47;51.92;100163.06;5076034;28;20059;-66
2020/12/14 12:14:13;;;;;;;7.32;4.90;;;;;;;13.27;53.14;100166.22;5046713;28;20078;-66
2020/12/14 12:16:57;;;;;;;5.85;4.20;;;;;;;13.30;53.37;100166.75;5075603;28;20126;-66
2020/12/14 12:19:41;;;;;;;22.75;15.10;;;;;;;13.40;53.64;100161.22;5060483;28;20048;-66
2020/12/14 12:22:25;;;;;;;14.65;8.55;;;;;;;13.73;52.93;100154.91;5076019;28;20043;-67
2020/12/14 12:25:10;;;;;;;17.20;11.63;;;;;;;14.10;50.72;100163.28;5075790;28;20504;-66
2020/12/14 12:27:54;;;;;;;10.27;5.78;;;;;;;14.00;51.01;100152.75;5075675;28;20089;-67
2020/12/14 12:30:38;;;;;;;9.93;5.85;;;;;;;13.68;52.19;100155.38;5060249;28;20102;-66
2020/12/14 12:33:22;;;;;;;18.33;10.63;;;;;;;13.36;53.58;100151.84;5075581;28;20178;-67
2020/12/14 12:36:08;;;;;;;6.95;4.70;;;;;;;13.01;54.10;100154.75;5060171;28;20155;-66
2020/12/14 12:38:52;;;;;;;6.03;4.32;;;;;;;12.67;54.28;100151.25;5060115;28;20119;-66
2020/12/14 12:41:36;;;;;;;6.68;4.32;;;;;;;12.37;56.61;100143.75;5075191;28;20131;-66
2020/12/14 12:44:21;;;;;;;10.35;4.85;;;;;;;12.20;56.04;100133.94;5075423;28;20106;-66
2020/12/14 12:47:07;;;;;;;4.78;4.18;;;;;;;12.08;57.22;100127.19;5075429;28;20543;-66